INFORMACIÓN METAR y TAF
METAR FOR LEBZ
ADDS - METARS form results

(2002 UTC 04 June 2020)
Data provider http://aviationweather.gov/metar/data/
 
Forecast for: LEBZ (TALAVERA AB/BADA, ES)
Text: TAF LEBZ 041700Z 0418/0518 27008KT CAVOK TX29/0515Z TN13/0506Z
Forecast period: 1800 UTC 04 June 2020 to 1800 UTC 05 June 2020
Forecast type: FROM: standard forecast or significant change
Winds: from the W (270 degrees) at 9 MPH (8 knots; 4.1 m/s)
Visibility: 6 or more miles 10+ km)
Ceiling: unknown
Clouds: missing
Weather: no significant weather forecast for this period

 MAPA DE AEROPUERTO

 INFORMACIÓN DE PISTA
Pista 13 Longitud 9350 ft Ancho 197 ft
Elevación 579 ft Umbral desplazado 0 ft Rumbo de pista 126
Pista 31 Longitud 9350 ft Ancho 197 ft
Elevación 609 ft Umbral desplazado 0 ft Rumbo de pista 306

 FRECUANCIAS DEL AEROPUERTO
Tipo APP Nombre APP Frecuencia 139.3 MHZ
Tipo TWR Nombre BADAJOZ TW Frecuencia 122.1 MHZ

 RADIO AYUDAS DEL AEROPUERTO
Tipo NDB Nombre Badajoz Frecuencia 298 KHZ
Tipo TACAN Nombre Talavera Frecuencia 108800 KHZ
Tipo VOR-DME Nombre Badajoz Frecuencia 116800 KHZ